Time;durP1;ratioP1;P1;durP2;ratioP2;P2;SDS_P1;SDS_P2;PMS_P1;PMS_P2;Temp;Humidity;BMP_temperature;BMP_pressure;BME280_temperature;BME280_humidity;BME280_pressure;Samples;Min_cycle;Max_cycle;Signal;HPM_P1;HPM_P2
2022/06/23 00:01:59;;;;;;;2.58;1.88;;;26.10;51.00;;;;;;5088076;28;20517;-63
2022/06/23 00:04:32;;;;;;;1.77;1.67;;;26.10;51.00;;;;;;5092544;28;20464;-62
2022/06/23 00:07:16;;;;;;;1.70;1.60;;;26.10;50.90;;;;;;5092023;28;20484;-62
2022/06/23 00:09:51;;;;;;;2.00;1.90;;;26.10;50.90;;;;;;5092079;28;20074;-62
2022/06/23 00:12:35;;;;;;;2.33;1.67;;;26.10;50.90;;;;;;5091544;28;20059;-62
2022/06/23 00:15:27;;;;;;;2.17;1.88;;;26.00;50.80;;;;;;5091246;28;20101;-62
2022/06/23 00:18:00;;;;;;;2.55;1.88;;;26.00;50.80;;;;;;5074153;28;20048;-62
2022/06/23 00:20:50;;;;;;;2.65;1.80;;;26.00;50.70;;;;;;5092199;28;20101;-62
2022/06/23 00:23:22;;;;;;;;;;;26.00;50.80;;;;;;5090802;28;20082;-62
2022/06/23 00:25:59;;;;;;;2.40;2.00;;;26.00;50.70;;;;;;5092296;28;20338;-63
2022/06/23 00:28:41;;;;;;;1.75;1.65;;;26.00;50.80;;;;;;5091575;28;20121;-62
2022/06/23 00:31:31;;;;;;;2.78;1.98;;;26.00;50.70;;;;;;5090982;28;20099;-62
2022/06/23 00:34:03;;;;;;;1.55;1.45;;;26.00;50.70;;;;;;5091931;28;20446;-62
2022/06/23 00:36:41;;;;;;;3.60;1.98;;;26.00;51.30;;;;;;5091891;28;20044;-62
2022/06/23 00:39:34;;;;;;;3.45;2.10;;;26.00;51.40;;;;;;5091654;28;20449;-62
2022/06/23 00:42:06;;;;;;;2.58;1.83;;;26.00;51.50;;;;;;5091554;28;20120;-62
2022/06/23 00:44:41;;;;;;;4.18;1.80;;;26.00;50.90;;;;;;5092061;28;20082;-62
2022/06/23 00:47:17;;;;;;;3.33;1.98;;;26.00;50.80;;;;;;5091149;28;20166;-62
2022/06/23 00:50:13;;;;;;;2.05;1.80;;;26.00;50.80;;;;;;5091441;28;20090;-62
2022/06/23 00:52:45;;;;;;;1.90;1.63;;;26.00;50.80;;;;;;5089680;28;20067;-63
2022/06/23 00:55:45;;;;;;;2.45;1.80;;;26.00;50.80;;;;;;5091243;28;20052;-62
2022/06/23 00:58:26;;;;;;;2.92;1.98;;;25.90;50.70;;;;;;5090049;28;20079;-62
2022/06/23 01:01:00;;;;;;;3.35;1.60;;;25.90;50.70;;;;;;5089535;28;20083;-63
2022/06/23 01:03:50;;;;;;;3.22;1.52;;;25.90;50.70;;;;;;5091300;28;20088;-62
2022/06/23 01:06:27;;;;;;;3.03;2.03;;;25.90;50.70;;;;;;5090268;28;20135;-62
2022/06/23 01:09:15;;;;;;;3.08;1.60;;;25.90;50.70;;;;;;5090178;28;20304;-62
2022/06/23 01:11:47;;;;;;;1.83;1.23;;;25.90;50.70;;;;;;5090740;28;20059;-63
2022/06/23 01:14:53;;;;;;;4.60;1.48;;;25.90;50.70;;;;;;5090369;28;20131;-62
2022/06/23 01:17:39;;;;;;;1.80;1.70;;;25.90;50.70;;;;;;5089681;28;20079;-62
2022/06/23 01:20:35;;;;;;;1.92;1.83;;;25.90;50.80;;;;;;5091179;28;20070;-62
2022/06/23 01:23:17;;;;;;;1.85;1.75;;;25.90;50.80;;;;;;5090027;28;20075;-62
2022/06/23 01:26:14;;;;;;;2.03;1.92;;;25.90;50.70;;;;;;5090761;28;20457;-63
2022/06/23 01:28:42;;;;;;;2.00;1.90;;;25.90;50.70;;;;;;5090389;28;20047;-62
2022/06/23 01:31:21;;;;;;;1.60;1.50;;;25.90;50.70;;;;;;5090336;28;20136;-62
2022/06/23 01:34:00;;;;;;;2.17;2.03;;;25.90;50.70;;;;;;5090624;28;20056;-63
2022/06/23 01:36:40;;;;;;;3.72;1.70;;;25.90;50.70;;;;;;5090595;28;20131;-62
2022/06/23 01:39:13;;;;;;;;;;;25.90;50.70;;;;;;5090995;28;20116;-62
2022/06/23 01:41:48;;;;;;;1.65;1.52;;;25.80;50.60;;;;;;5090423;28;19928;-63
2022/06/23 01:44:43;;;;;;;1.70;1.60;;;25.80;50.70;;;;;;5090443;28;20113;-62
2022/06/23 01:47:21;;;;;;;1.92;1.50;;;25.80;50.70;;;;;;5090167;28;20127;-62
2022/06/23 01:49:59;;;;;;;1.73;1.63;;;25.80;50.70;;;;;;5090067;28;20097;-63
2022/06/23 01:52:26;;;;;;;2.10;1.40;;;25.80;50.70;;;;;;5089989;28;20052;-62
2022/06/23 01:55:01;;;;;;;1.75;1.65;;;25.90;50.80;;;;;;5090296;28;20055;-63
2022/06/23 01:57:35;;;;;;;2.00;1.77;;;25.90;50.80;;;;;;5103681;28;20104;-62
2022/06/23 02:00:15;;;;;;;3.35;1.70;;;25.80;50.80;;;;;;5110531;28;20071;-62
2022/06/23 02:03:16;;;;;;;1.98;1.75;;;25.80;50.80;;;;;;5110797;28;20051;-62
2022/06/23 02:06:03;;;;;;;1.55;1.42;;;25.80;50.90;;;;;;5110195;28;20385;-62
2022/06/23 02:08:51;;;;;;;1.98;1.45;;;25.80;50.90;;;;;;5110562;28;20450;-62
2022/06/23 02:11:43;;;;;;;1.65;1.45;;;25.80;50.90;;;;;;5108544;28;20575;-62
2022/06/23 02:14:22;;;;;;;1.65;1.33;;;25.80;50.90;;;;;;5110035;28;20085;-62
2022/06/23 02:17:16;;;;;;;2.42;1.80;;;25.80;50.90;;;;;;5109275;28;20051;-62
2022/06/23 02:19:49;;;;;;;1.63;1.52;;;25.80;50.90;;;;;;5109677;28;20496;-62
2022/06/23 02:22:31;;;;;;;1.80;1.70;;;25.80;51.00;;;;;;5110488;28;20120;-61
2022/06/23 02:25:18;;;;;;;1.38;1.27;;;25.80;51.10;;;;;;5109836;28;20050;-61
2022/06/23 02:28:11;;;;;;;1.52;1.42;;;25.80;51.10;;;;;;5109800;28;20613;-61
2022/06/23 02:30:45;;;;;;;1.95;1.80;;;25.80;51.10;;;;;;5109523;28;20047;-61
2022/06/23 02:33:30;;;;;;;1.83;1.65;;;25.80;51.10;;;;;;5092517;28;20051;-61
2022/06/23 02:36:36;;;;;;;1.58;1.35;;;25.80;51.10;;;;;;5107671;28;20452;-62
2022/06/23 02:39:20;;;;;;;2.90;1.77;;;25.80;51.20;;;;;;5110216;28;20039;-61
2022/06/23 02:41:55;;;;;;;1.42;1.33;;;25.80;51.20;;;;;;5109526;28;20257;-61
2022/06/23 02:45:03;;;;;;;1.58;1.42;;;25.80;51.90;;;;;;5109778;28;20051;-61
2022/06/23 02:48:07;;;;;;;3.78;1.27;;;25.80;51.40;;;;;;5110162;28;20071;-61
2022/06/23 02:51:01;;;;;;;2.05;1.63;;;25.80;51.50;;;;;;5109292;28;20147;-61
2022/06/23 02:53:57;;;;;;;2.22;2.05;;;25.80;51.50;;;;;;5109394;28;20055;-61
2022/06/23 02:56:56;;;;;;;3.22;1.90;;;25.80;51.60;;;;;;5108424;28;20047;-61
2022/06/23 02:59:55;;;;;;;2.13;1.55;;;25.80;51.60;;;;;;5110109;28;20048;-61
2022/06/23 03:02:35;;;;;;;1.77;1.45;;;25.80;51.70;;;;;;5107438;28;20507;-61
2022/06/23 03:05:26;;;;;;;1.35;1.27;;;25.80;51.70;;;;;;5109226;28;20073;-62
2022/06/23 03:08:21;;;;;;;3.80;1.90;;;25.80;51.70;;;;;;5108822;28;20130;-61
2022/06/23 03:10:59;;;;;;;3.08;1.58;;;25.80;51.70;;;;;;5108114;28;20081;-61
2022/06/23 03:13:51;;;;;;;1.63;1.52;;;25.70;51.60;;;;;;5108839;28;20051;-61
2022/06/23 03:16:29;;;;;;;1.88;1.55;;;25.80;51.70;;;;;;5092084;28;20076;-61
2022/06/23 03:19:10;;;;;;;1.30;1.20;;;25.70;51.60;;;;;;5108050;28;20403;-61
2022/06/23 03:21:54;;;;;;;5.03;1.33;;;25.70;51.60;;;;;;5108899;28;20044;-61
2022/06/23 03:24:31;;;;;;;2.25;1.88;;;25.80;51.70;;;;;;5108405;28;20047;-61
2022/06/23 03:27:22;;;;;;;1.45;1.25;;;25.80;51.70;;;;;;5101132;28;20088;-61
2022/06/23 03:30:16;;;;;;;1.58;1.40;;;25.80;51.70;;;;;;5097973;28;20076;-61
2022/06/23 03:32:51;;;;;;;1.65;1.52;;;25.80;51.70;;;;;;5095669;28;20052;-61
2022/06/23 03:35:50;;;;;;;3.35;1.70;;;25.80;51.70;;;;;;5088266;28;20056;-62
2022/06/23 03:41:38;;;;;;;2.05;1.45;;;25.80;51.70;;;;;;5093868;28;20059;-61
2022/06/23 03:44:16;;;;;;;2.28;1.30;;;25.80;51.70;;;;;;5096053;28;20082;-61
2022/06/23 03:47:12;;;;;;;1.98;1.88;;;25.80;51.60;;;;;;5108578;28;20100;-61
2022/06/23 03:49:46;;;;;;;1.80;1.40;;;25.80;51.70;;;;;;5108403;28;20079;-61
2022/06/23 03:52:37;;;;;;;2.22;1.70;;;25.80;51.70;;;;;;5108393;28;20487;-61
2022/06/23 03:55:23;;;;;;;2.10;1.40;;;25.80;51.70;;;;;;5107060;28;20549;-61
2022/06/23 03:57:55;;;;;;;1.70;1.60;;;25.90;51.80;;;;;;5108141;28;20090;-61
2022/06/23 04:00:32;;;;;;;2.20;2.00;;;25.90;51.70;;;;;;5108467;28;20590;-61
2022/06/23 04:03:36;;;;;;;2.95;1.42;;;25.90;51.70;;;;;;5108844;28;20047;-61
2022/06/23 04:06:37;;;;;;;2.17;1.92;;;25.90;51.70;;;;;;5107230;28;20054;-61
2022/06/23 04:09:25;;;;;;;3.08;1.90;;;25.90;51.70;;;;;;5108424;28;20541;-61
2022/06/23 04:12:14;;;;;;;3.13;2.08;;;25.90;51.60;;;;;;5108229;28;20065;-61
2022/06/23 04:14:57;;;;;;;2.95;2.40;;;25.90;51.60;;;;;;5108304;28;20077;-61
2022/06/23 04:17:39;;;;;;;3.88;1.90;;;26.00;51.70;;;;;;5108183;28;20051;-61
2022/06/23 04:20:19;;;;;;;3.80;2.20;;;26.00;51.70;;;;;;5108340;28;20048;-61
2022/06/23 04:22:50;;;;;;;3.60;2.53;;;26.00;51.70;;;;;;5108397;28;20044;-61
2022/06/23 04:25:22;;;;;;;2.38;1.95;;;26.00;51.70;;;;;;5108438;28;20048;-61
2022/06/23 04:27:58;;;;;;;3.63;2.58;;;26.00;51.70;;;;;;5108190;28;20083;-61
2022/06/23 04:30:39;;;;;;;2.40;2.20;;;26.00;51.70;;;;;;5107835;28;20537;-61
2022/06/23 04:33:15;;;;;;;2.25;1.92;;;26.00;51.70;;;;;;5107834;28;20492;-61
2022/06/23 04:35:49;;;;;;;2.72;2.30;;;26.00;51.70;;;;;;5108294;28;20079;-61
2022/06/23 04:38:40;;;;;;;2.70;2.50;;;26.00;51.60;;;;;;5102080;28;20075;-62
2022/06/23 04:41:39;;;;;;;3.58;2.20;;;26.00;51.60;;;;;;5095535;28;20515;-61
2022/06/23 04:44:28;;;;;;;3.75;2.15;;;26.00;51.60;;;;;;5087575;28;20048;-61
2022/06/23 04:47:07;;;;;;;2.53;2.33;;;26.00;51.60;;;;;;5087708;28;20075;-61
2022/06/23 04:49:49;;;;;;;3.85;2.33;;;26.00;51.60;;;;;;5088590;28;20048;-61
2022/06/23 04:52:37;;;;;;;2.78;2.42;;;26.10;51.60;;;;;;5090763;28;20048;-63
2022/06/23 04:55:28;;;;;;;2.63;2.42;;;26.10;51.60;;;;;;5091367;28;20500;-61
2022/06/23 04:58:22;;;;;;;3.20;2.05;;;26.10;51.50;;;;;;5091334;28;20524;-61
2022/06/23 05:00:52;;;;;;;2.40;2.30;;;26.10;51.50;;;;;;5091050;28;20510;-61
2022/06/23 05:03:24;;;;;;;;;;;26.10;51.50;;;;;;5091488;28;20454;-62
2022/06/23 05:06:08;;;;;;;3.17;2.55;;;26.10;51.50;;;;;;5091225;28;19982;-61
2022/06/23 05:08:40;;;;;;;3.67;2.30;;;26.20;51.50;;;;;;5090828;28;20093;-61
2022/06/23 05:11:30;;;;;;;2.45;2.05;;;26.10;51.60;;;;;;5099754;28;20077;-61
2022/06/23 05:17:18;;;;;;;4.25;2.67;;;25.90;52.40;;;;;;5110910;28;20436;-60
2022/06/23 05:19:51;;;;;;;4.03;3.40;;;25.60;53.90;;;;;;5104110;27;20052;-60
2022/06/23 05:22:29;;;;;;;3.72;3.08;;;25.40;55.00;;;;;;5100688;27;20135;-60
2022/06/23 05:25:13;;;;;;;3.75;3.03;;;25.00;54.40;;;;;;5121529;27;20051;-60
2022/06/23 05:27:44;;;;;;;3.95;3.55;;;24.80;54.00;;;;;;5100095;28;20454;-60
2022/06/23 05:30:33;;;;;;;5.82;3.90;;;24.40;53.30;;;;;;5096135;28;20104;-60
2022/06/23 05:33:15;;;;;;;3.90;3.45;;;23.90;53.10;;;;;;5098328;28;20067;-60
2022/06/23 05:35:48;;;;;;;4.20;3.75;;;23.40;53.40;;;;;;5090449;28;20069;-62
2022/06/23 05:38:39;;;;;;;5.38;3.83;;;22.90;54.20;;;;;;5090105;27;20099;-61
2022/06/23 05:41:34;;;;;;;5.55;3.97;;;22.40;54.20;;;;;;5091432;28;20044;-61
2022/06/23 05:44:07;;;;;;;8.23;3.55;;;22.10;55.20;;;;;;5092431;28;20043;-61
2022/06/23 05:46:40;;;;;;;6.10;3.65;;;21.70;57.00;;;;;;5092573;28;20101;-61
2022/06/23 05:49:24;;;;;;;4.85;3.97;;;21.50;56.00;;;;;;5098802;27;20044;-61
2022/06/23 05:52:00;;;;;;;7.40;4.60;;;21.20;56.30;;;;;;5086893;28;20060;-61
2022/06/23 05:54:34;;;;;;;5.85;5.00;;;21.00;59.00;;;;;;5088820;28;20044;-62
2022/06/23 05:57:12;;;;;;;8.63;5.28;;;20.80;60.10;;;;;;5090695;28;20055;-61
2022/06/23 06:00:19;;;;;;;9.20;5.28;;;20.60;59.50;;;;;;5094487;27;20044;-61
2022/06/23 06:03:16;;;;;;;6.38;4.97;;;20.40;60.40;;;;;;5097359;28;20104;-60
2022/06/23 06:05:47;;;;;;;11.15;6.65;;;20.20;60.00;;;;;;5086407;28;20100;-60
2022/06/23 06:08:19;;;;;;;6.40;5.72;;;20.00;65.40;;;;;;5090636;28;20571;-60
2022/06/23 06:10:48;;;;;;;7.55;4.60;;;19.80;64.30;;;;;;5089794;28;20035;-64
2022/06/23 06:13:28;;;;;;;7.80;4.45;;;19.70;61.10;;;;;;5091199;27;20047;-64
2022/06/23 06:15:59;;;;;;;8.30;4.28;;;19.60;59.30;;;;;;5091613;28;20043;-64
2022/06/23 06:18:33;;;;;;;4.03;3.60;;;19.50;60.00;;;;;;5091911;28;20052;-63
2022/06/23 06:21:03;;;;;;;7.50;3.92;;;19.30;59.40;;;;;;5093927;28;20502;-65
2022/06/23 06:23:57;;;;;;;4.13;3.13;;;19.20;58.80;;;;;;5092736;28;20097;-63
2022/06/23 06:26:32;;;;;;;4.88;3.30;;;19.10;58.00;;;;;;5092177;28;20553;-63
2022/06/23 06:29:14;;;;;;;3.70;3.40;;;18.90;58.80;;;;;;5089789;28;20044;-63
2022/06/23 06:31:46;;;;;;;4.18;3.20;;;18.70;58.90;;;;;;5089433;28;20044;-62
2022/06/23 06:34:32;;;;;;;4.38;3.38;;;18.70;60.80;;;;;;5091536;28;20051;-64
2022/06/23 06:36:59;;;;;;;4.07;3.60;;;18.60;60.00;;;;;;5096861;28;20052;-65
2022/06/23 06:39:34;;;;;;;6.20;3.80;;;18.60;59.50;;;;;;5089278;28;20128;-65
2022/06/23 06:42:27;;;;;;;4.80;3.80;;;18.50;60.00;;;;;;5090507;27;20044;-66
2022/06/23 06:44:59;;;;;;;4.72;3.33;;;18.50;60.40;;;;;;5093517;28;20126;-66
2022/06/23 06:47:29;;;;;;;5.88;3.22;;;18.50;60.20;;;;;;5087666;28;20488;-67
2022/06/23 06:50:02;;;;;;;3.13;2.83;;;18.50;60.00;;;;;;5091760;28;20071;-64
2022/06/23 06:52:30;;;;;;;8.32;3.53;;;18.50;60.80;;;;;;5085345;28;20039;-63
2022/06/23 06:55:11;;;;;;;4.90;3.67;;;18.50;60.80;;;;;;5084107;27;20056;-65
2022/06/23 06:57:49;;;;;;;4.45;3.53;;;18.50;60.50;;;;;;5085717;28;20036;-62
2022/06/23 07:00:32;;;;;;;3.50;3.20;;;18.60;60.60;;;;;;5084145;28;20414;-63
2022/06/23 07:03:03;;;;;;;6.10;3.00;;;18.50;60.40;;;;;;5089284;27;20069;-63
2022/06/23 07:05:39;;;;;;;4.05;3.75;;;18.60;60.80;;;;;;5082456;28;20153;-64
2022/06/23 07:08:20;;;;;;;4.65;3.30;;;18.60;60.60;;;;;;5090792;28;20073;-63
2022/06/23 07:10:54;;;;;;;;;;;18.60;61.40;;;;;;5090160;28;20051;-64
2022/06/23 07:13:38;;;;;;;6.63;3.53;;;18.60;61.60;;;;;;5091208;28;19969;-66
2022/06/23 07:16:23;;;;;;;3.80;3.50;;;18.70;61.20;;;;;;5083322;28;20382;-63
2022/06/23 07:19:03;;;;;;;3.10;2.90;;;18.70;61.60;;;;;;5088782;28;20047;-63
2022/06/23 07:21:48;;;;;;;5.72;3.35;;;18.70;61.00;;;;;;5081156;27;20048;-63
2022/06/23 07:24:26;;;;;;;4.13;3.10;;;18.70;61.70;;;;;;5087511;28;20442;-64
2022/06/23 07:27:02;;;;;;;5.10;3.38;;;18.80;61.30;;;;;;5092439;28;20055;-64
2022/06/23 07:29:55;;;;;;;8.75;3.33;;;18.80;61.40;;;;;;5094309;27;20044;-63
2022/06/23 07:32:38;;;;;;;4.80;3.58;;;18.70;60.70;;;;;;5090645;28;20105;-65
2022/06/23 07:35:29;;;;;;;4.38;3.28;;;18.80;61.30;;;;;;5093592;28;20089;-64
2022/06/23 07:38:20;;;;;;;3.50;3.20;;;18.80;61.30;;;;;;5085867;28;20055;-66
2022/06/23 07:41:07;;;;;;;3.45;3.15;;;18.70;61.70;;;;;;5089620;28;20135;-65
2022/06/23 07:43:49;;;;;;;3.50;3.20;;;18.70;62.00;;;;;;5098298;28;20055;-65
2022/06/23 07:46:17;;;;;;;3.25;2.90;;;18.70;62.40;;;;;;5104954;27;20545;-63
2022/06/23 07:48:46;;;;;;;4.60;3.08;;;18.70;62.60;;;;;;5088489;28;20574;-64
2022/06/23 07:51:14;;;;;;;3.70;3.40;;;18.80;63.10;;;;;;5087614;28;20552;-63
2022/06/23 07:53:46;;;;;;;3.88;3.35;;;18.80;63.50;;;;;;5089970;28;20051;-63
2022/06/23 07:56:17;;;;;;;5.45;2.95;;;18.90;64.20;;;;;;5091203;28;20470;-63
2022/06/23 07:58:46;;;;;;;3.10;2.90;;;19.00;63.50;;;;;;5093565;28;20062;-64
2022/06/23 08:01:37;;;;;;;4.53;3.38;;;19.10;63.00;;;;;;5087386;28;20047;-64
2022/06/23 08:04:35;;;;;;;3.22;3.03;;;19.20;62.70;;;;;;5090226;28;20446;-64
2022/06/23 08:07:06;;;;;;;2.97;2.78;;;19.20;62.40;;;;;;5092637;28;20040;-65
2022/06/23 08:09:49;;;;;;;4.95;2.90;;;19.30;62.30;;;;;;5087760;28;20055;-65
2022/06/23 08:18:46;;;;;;;6.25;3.22;;;19.20;62.50;;;;;;5093592;28;20040;-64
2022/06/23 08:21:28;;;;;;;3.17;2.90;;;19.30;62.60;;;;;;5088496;28;20127;-65
2022/06/23 08:24:12;;;;;;;6.82;3.10;;;19.20;61.70;;;;;;5090565;28;20075;-66
2022/06/23 08:26:44;;;;;;;6.60;3.30;;;19.30;61.90;;;;;;5094572;28;20056;-64
2022/06/23 08:29:14;;;;;;;7.25;2.83;;;19.30;61.70;;;;;;5091200;28;20120;-64
2022/06/23 08:31:43;;;;;;;6.50;3.05;;;19.40;61.50;;;;;;5091132;28;20066;-65
2022/06/23 08:34:30;;;;;;;7.28;3.20;;;19.40;61.60;;;;;;5092588;28;20067;-63
2022/06/23 08:37:18;;;;;;;6.50;3.13;;;19.40;61.60;;;;;;5092734;28;20097;-65
2022/06/23 08:39:59;;;;;;;7.28;2.72;;;19.40;61.30;;;;;;5105249;27;20112;-64
2022/06/23 08:42:55;;;;;;;3.92;2.97;;;19.40;61.30;;;;;;5092881;28;20530;-64
2022/06/23 08:45:48;;;;;;;3.63;3.05;;;19.40;61.60;;;;;;5095000;28;20059;-65
2022/06/23 08:48:25;;;;;;;3.20;2.90;;;19.40;61.50;;;;;;5094050;28;20404;-66
2022/06/23 08:51:17;;;;;;;5.68;2.83;;;19.50;61.80;;;;;;5092723;28;20048;-65
2022/06/23 08:54:04;;;;;;;2.95;2.75;;;19.40;61.70;;;;;;5092934;28;20048;-67
2022/06/23 08:56:57;;;;;;;3.65;3.35;;;19.40;62.10;;;;;;5093688;28;20044;-64
2022/06/23 08:59:52;;;;;;;2.83;2.63;;;19.50;61.90;;;;;;5091921;28;20052;-64
2022/06/23 09:02:44;;;;;;;3.10;2.80;;;19.50;62.50;;;;;;5099342;28;20048;-64
2022/06/23 09:05:52;;;;;;;3.15;2.85;;;19.50;62.40;;;;;;5094027;28;20048;-64
2022/06/23 09:08:42;;;;;;;2.85;2.47;;;19.60;62.00;;;;;;5094406;28;20067;-63
2022/06/23 09:11:55;;;;;;;5.32;2.90;;;19.60;62.10;;;;;;5092927;28;20089;-64
2022/06/23 09:14:54;;;;;;;3.53;3.00;;;19.70;62.10;;;;;;5095891;27;20051;-64
2022/06/23 09:18:02;;;;;;;3.47;2.08;;;19.70;62.00;;;;;;5097013;28;20043;-65
2022/06/23 09:21:01;;;;;;;2.95;2.28;;;19.70;61.90;;;;;;5097023;28;20074;-64
2022/06/23 09:24:27;;;;;;;2.67;2.45;;;19.70;61.80;;;;;;5090105;28;20466;-64
2022/06/23 09:27:03;;;;;;;4.03;2.67;;;19.80;61.90;;;;;;5091457;28;20456;-65
2022/06/23 09:29:52;;;;;;;2.42;2.33;;;19.80;61.80;;;;;;5092905;28;20047;-66
2022/06/23 09:32:57;;;;;;;3.25;2.90;;;19.90;61.60;;;;;;5090228;28;20496;-66
2022/06/23 09:36:04;;;;;;;2.67;2.47;;;19.90;61.80;;;;;;5083630;28;20706;-67
2022/06/23 09:39:00;;;;;;;3.10;2.40;;;19.90;61.30;;;;;;5112341;27;20043;-68
2022/06/23 09:41:51;;;;;;;3.00;2.70;;;20.00;61.20;;;;;;5088973;28;20055;-68
2022/06/23 09:44:38;;;;;;;;;;;20.00;61.30;;;;;;5093962;28;20060;-67
2022/06/23 09:47:40;;;;;;;3.47;2.63;;;20.00;61.20;;;;;;5089524;28;19919;-68
2022/06/23 09:50:45;;;;;;;2.95;2.75;;;20.00;61.30;;;;;;5090877;28;20048;-68
2022/06/23 09:53:53;;;;;;;5.13;2.95;;;20.10;61.10;;;;;;5095861;28;20127;-68
2022/06/23 09:56:55;;;;;;;2.80;2.60;;;20.10;60.80;;;;;;5090869;28;20048;-68
2022/06/23 09:59:47;;;;;;;2.80;2.60;;;20.20;60.80;;;;;;5096602;28;20044;-66
2022/06/23 10:02:34;;;;;;;3.05;2.80;;;20.20;61.20;;;;;;5089276;28;20122;-67
2022/06/23 10:05:42;;;;;;;2.72;2.50;;;20.20;61.30;;;;;;5092396;27;20040;-67
2022/06/23 10:08:31;;;;;;;2.88;2.67;;;20.20;61.20;;;;;;5095051;28;20032;-66
2022/06/23 10:11:38;;;;;;;3.92;2.90;;;20.30;60.80;;;;;;5093904;28;20777;-65
2022/06/23 10:14:18;;;;;;;3.08;2.78;;;20.30;60.80;;;;;;5095488;28;20043;-65
2022/06/23 10:17:19;;;;;;;2.85;2.50;;;20.30;60.90;;;;;;5100549;28;20043;-67
2022/06/23 10:20:17;;;;;;;3.28;2.55;;;20.30;60.80;;;;;;5091967;28;20492;-66
2022/06/23 10:23:24;;;;;;;3.45;2.42;;;20.30;60.60;;;;;;5099725;28;20453;-66
2022/06/23 10:26:30;;;;;;;3.78;3.08;;;20.30;60.00;;;;;;5090407;28;20100;-66
2022/06/23 10:29:27;;;;;;;3.88;2.28;;;20.30;60.00;;;;;;5092008;28;20048;-68
2022/06/23 10:32:24;;;;;;;4.95;3.22;;;20.30;59.90;;;;;;5097149;28;20039;-68
2022/06/23 10:35:25;;;;;;;4.90;2.97;;;20.30;60.00;;;;;;5096663;28;20048;-68
2022/06/23 10:38:20;;;;;;;3.20;3.00;;;20.30;60.60;;;;;;5096722;28;20047;-68
2022/06/23 10:41:17;;;;;;;2.80;2.22;;;20.30;59.90;;;;;;5103024;27;20443;-69
2022/06/23 10:44:24;;;;;;;5.53;2.55;;;20.20;60.20;;;;;;5110737;27;20048;-69
2022/06/23 10:47:19;;;;;;;2.50;2.30;;;20.30;60.00;;;;;;5093131;28;20493;-69
2022/06/23 10:50:17;;;;;;;4.30;2.65;;;20.30;59.90;;;;;;5087061;27;20051;-69
2022/06/23 10:53:21;;;;;;;2.42;2.22;;;20.30;59.90;;;;;;5095388;28;20048;-70
2022/06/23 10:56:17;;;;;;;5.72;2.47;;;20.30;60.20;;;;;;5094926;28;20108;-68
2022/06/23 10:59:14;;;;;;;2.47;2.28;;;20.30;60.00;;;;;;5096846;27;20546;-69
2022/06/23 11:02:20;;;;;;;3.42;2.80;;;20.30;60.20;;;;;;5095323;27;20044;-68
2022/06/23 11:05:20;;;;;;;3.50;2.50;;;20.30;60.00;;;;;;5094876;28;20377;-67
2022/06/23 11:08:27;;;;;;;2.97;2.72;;;20.30;60.40;;;;;;5089308;28;20043;-67
2022/06/23 11:11:30;;;;;;;3.00;2.80;;;20.30;60.20;;;;;;5088266;27;20531;-63
2022/06/23 11:14:22;;;;;;;2.60;2.38;;;20.30;60.40;;;;;;5088133;28;20039;-64
2022/06/23 11:17:18;;;;;;;7.22;2.38;;;20.30;60.50;;;;;;5092615;28;20090;-62
2022/06/23 11:20:18;;;;;;;2.50;2.35;;;20.30;60.30;;;;;;5089851;28;20443;-62
2022/06/23 11:23:10;;;;;;;2.43;2.33;;;20.40;60.10;;;;;;5092267;28;20066;-62
2022/06/23 11:26:17;;;;;;;3.42;3.00;;;20.30;60.00;;;;;;5086851;28;20507;-62
2022/06/23 11:29:19;;;;;;;2.65;2.20;;;20.30;60.20;;;;;;5089720;28;20436;-62
2022/06/23 11:32:08;;;;;;;2.30;2.10;;;20.30;59.90;;;;;;5075301;28;20043;-64
2022/06/23 11:35:08;;;;;;;2.25;2.15;;;20.30;59.80;;;;;;5089383;28;20101;-63
2022/06/23 11:37:54;;;;;;;;;;;20.30;59.60;;;;;;5098839;28;20130;-62
2022/06/23 11:40:45;;;;;;;3.45;2.58;;;20.30;59.40;;;;;;5088158;28;20002;-61
2022/06/23 11:43:22;;;;;;;2.63;2.42;;;20.30;59.80;;;;;;5085522;28;20039;-62
2022/06/23 11:46:16;;;;;;;3.95;2.70;;;20.30;59.70;;;;;;5089511;28;20047;-61
2022/06/23 11:49:23;;;;;;;4.05;2.47;;;20.30;59.50;;;;;;5089833;28;20568;-63
2022/06/23 11:52:28;;;;;;;4.72;2.03;;;20.20;59.30;;;;;;5090601;28;20067;-63
2022/06/23 11:55:22;;;;;;;2.30;2.17;;;20.20;59.00;;;;;;5083404;28;20044;-64
2022/06/23 11:58:07;;;;;;;2.33;2.05;;;20.20;59.00;;;;;;5089563;28;20048;-61
2022/06/23 12:00:48;;;;;;;2.13;1.90;;;20.20;59.40;;;;;;5093701;28;20083;-61
2022/06/23 12:03:47;;;;;;;2.00;1.90;;;20.30;59.40;;;;;;5089990;28;20134;-61
2022/06/23 12:06:47;;;;;;;2.13;1.70;;;20.30;59.10;;;;;;5102853;28;20052;-60
2022/06/23 12:09:48;;;;;;;4.40;2.88;;;20.30;59.00;;;;;;5094944;28;20488;-61
2022/06/23 12:12:16;;;;;;;3.38;1.95;;;20.20;59.20;;;;;;5097732;28;20049;-61
2022/06/23 12:14:44;;;;;;;2.15;2.05;;;20.20;59.00;;;;;;5094271;27;20450;-60
2022/06/23 12:17:20;;;;;;;1.80;1.70;;;20.20;59.10;;;;;;5095550;28;20047;-59
2022/06/23 12:20:15;;;;;;;2.22;2.03;;;20.20;59.30;;;;;;5091400;28;20043;-59
2022/06/23 12:22:57;;;;;;;2.22;2.13;;;20.20;59.20;;;;;;5089023;28;20138;-60
2022/06/23 12:25:37;;;;;;;2.00;1.90;;;20.20;59.60;;;;;;5094871;27;20052;-59
2022/06/23 12:28:28;;;;;;;2.53;1.98;;;20.20;60.00;;;;;;5098148;28;20080;-60
2022/06/23 12:31:10;;;;;;;2.42;2.20;;;20.20;60.30;;;;;;5098213;28;20048;-59
2022/06/23 12:34:14;;;;;;;2.05;1.95;;;20.20;60.40;;;;;;5094429;27;20336;-59
2022/06/23 12:37:07;;;;;;;2.17;2.08;;;20.20;60.50;;;;;;5095153;28;20048;-59
2022/06/23 12:40:06;;;;;;;3.25;2.40;;;20.30;60.60;;;;;;5096779;28;20097;-59
2022/06/23 12:42:45;;;;;;;2.28;2.17;;;20.40;60.60;;;;;;5091551;28;20044;-60
2022/06/23 12:45:42;;;;;;;2.37;2.20;;;20.40;60.50;;;;;;5091202;28;20090;-60
2022/06/23 12:48:36;;;;;;;2.47;2.28;;;20.50;60.70;;;;;;5093324;28;20048;-61
2022/06/23 12:51:35;;;;;;;1.90;1.80;;;20.60;60.60;;;;;;5093365;27;20054;-61
2022/06/23 12:54:39;;;;;;;2.22;2.13;;;20.60;60.50;;;;;;5094227;27;20090;-62
2022/06/23 12:57:39;;;;;;;2.65;2.45;;;20.70;60.50;;;;;;5096597;27;20042;-61
2022/06/23 13:00:17;;;;;;;5.22;2.10;;;20.70;61.10;;;;;;5093315;28;20074;-61
2022/06/23 13:03:12;;;;;;;2.63;2.28;;;20.80;61.30;;;;;;5091463;27;20052;-61
2022/06/23 13:05:51;;;;;;;4.03;2.22;;;20.80;61.10;;;;;;5096060;28;20139;-62
2022/06/23 13:08:53;;;;;;;3.67;2.17;;;20.80;61.10;;;;;;5094074;28;20070;-60
2022/06/23 13:11:33;;;;;;;2.40;2.20;;;20.80;61.20;;;;;;5089864;28;20539;-60
2022/06/23 13:14:10;;;;;;;4.85;2.25;;;20.90;61.10;;;;;;5099142;27;20096;-61
2022/06/23 13:16:54;;;;;;;3.60;2.20;;;21.00;61.10;;;;;;5093932;28;20130;-60
2022/06/23 13:19:36;;;;;;;2.97;2.60;;;21.00;60.90;;;;;;5094014;28;20044;-61
2022/06/23 13:22:23;;;;;;;2.30;2.20;;;21.10;61.00;;;;;;5092475;27;20052;-62
2022/06/23 13:24:56;;;;;;;2.40;2.30;;;21.10;61.00;;;;;;5098181;27;20043;-60
2022/06/23 13:27:29;;;;;;;2.10;1.90;;;21.10;61.20;;;;;;5099199;28;20982;-61
2022/06/23 13:30:06;;;;;;;2.38;2.17;;;21.20;61.10;;;;;;5100337;28;20052;-61
2022/06/23 13:33:00;;;;;;;2.55;2.15;;;21.30;61.10;;;;;;5094817;28;20104;-61
2022/06/23 13:35:39;;;;;;;4.28;1.88;;;21.30;60.90;;;;;;5096721;27;20538;-60
2022/06/23 13:38:26;;;;;;;2.30;2.20;;;21.40;61.20;;;;;;5093914;28;20044;-62
2022/06/23 13:41:05;;;;;;;1.92;1.83;;;21.40;60.40;;;;;;5093221;28;20052;-61
2022/06/23 13:44:14;;;;;;;2.67;2.47;;;21.40;60.30;;;;;;5090138;28;20159;-61
2022/06/23 13:47:16;;;;;;;2.13;2.03;;;21.40;60.20;;;;;;5098917;28;20039;-61
2022/06/23 13:49:57;;;;;;;3.10;2.20;;;21.50;60.20;;;;;;5092739;28;20047;-63
2022/06/23 13:52:49;;;;;;;2.00;1.90;;;21.50;60.10;;;;;;5093619;28;20081;-62
2022/06/23 13:55:33;;;;;;;2.67;2.53;;;21.60;59.80;;;;;;5088353;28;20048;-62
2022/06/23 13:58:12;;;;;;;4.38;2.22;;;21.50;59.80;;;;;;5089942;28;20067;-62
2022/06/23 14:00:59;;;;;;;3.97;2.38;;;21.50;60.40;;;;;;5090036;28;20456;-61
2022/06/23 14:04:04;;;;;;;2.58;2.38;;;21.60;59.90;;;;;;5092733;28;20102;-60
2022/06/23 14:06:36;;;;;;;2.22;2.13;;;21.60;59.80;;;;;;5098625;28;20075;-59
2022/06/23 14:09:28;;;;;;;2.78;2.10;;;21.50;59.70;;;;;;5096661;27;20256;-59
2022/06/23 14:12:20;;;;;;;2.50;2.40;;;21.60;59.60;;;;;;5092838;27;20047;-60
2022/06/23 14:14:58;;;;;;;2.50;2.30;;;21.50;59.80;;;;;;5088832;28;20048;-61
2022/06/23 14:17:49;;;;;;;2.65;2.45;;;21.50;59.80;;;;;;5098621;28;20109;-61
2022/06/23 14:20:25;;;;;;;3.90;2.20;;;21.50;59.80;;;;;;5092151;28;20104;-61
2022/06/23 14:23:00;;;;;;;2.85;2.63;;;21.60;59.80;;;;;;5091678;28;20050;-61
2022/06/23 14:25:42;;;;;;;2.50;2.30;;;21.50;59.80;;;;;;5092991;28;20047;-61
2022/06/23 14:28:38;;;;;;;2.53;2.33;;;21.60;59.60;;;;;;5093440;28;20396;-61
2022/06/23 14:31:17;;;;;;;2.58;2.38;;;21.60;60.20;;;;;;5088852;28;20071;-61
2022/06/23 14:33:54;;;;;;;2.83;2.45;;;21.50;59.70;;;;;;5093844;28;20564;-60
2022/06/23 14:36:38;;;;;;;3.58;2.35;;;21.50;59.40;;;;;;5092937;28;20048;-61
2022/06/23 14:39:30;;;;;;;3.60;2.78;;;21.50;59.50;;;;;;5092065;28;20036;-61